createdAt,value
2022-11-07T00:00:15.384Z,89
2022-11-07T00:01:15.566Z,89
2022-11-07T00:02:15.560Z,89
2022-11-07T00:03:16.610Z,89
2022-11-07T00:04:15.643Z,89
2022-11-07T00:05:14.936Z,90
2022-11-07T00:06:15.306Z,90
2022-11-07T00:07:15.692Z,89
2022-11-07T00:08:15.102Z,89
2022-11-07T00:11:15.291Z,89
2022-11-07T00:12:15.576Z,89
2022-11-07T00:13:15.623Z,90
2022-11-07T00:14:15.142Z,90
2022-11-07T00:15:15.485Z,89
2022-11-07T00:16:14.923Z,89
2022-11-07T00:17:15.149Z,90
2022-11-07T00:18:15.553Z,90
2022-11-07T00:19:14.846Z,90
2022-11-07T00:22:14.986Z,90
2022-11-07T00:23:16.370Z,90
2022-11-07T00:24:15.618Z,89
2022-11-07T00:25:15.000Z,89
2022-11-07T00:26:15.241Z,90
2022-11-07T00:27:15.906Z,90
2022-11-07T00:28:15.011Z,90
2022-11-07T00:29:15.339Z,90
2022-11-07T00:30:15.709Z,90
2022-11-07T00:31:15.093Z,90
2022-11-07T00:32:15.534Z,90
2022-11-07T00:33:15.593Z,90
2022-11-07T00:34:15.355Z,90
2022-11-07T00:35:15.696Z,90
2022-11-07T00:36:14.945Z,90
2022-11-07T00:37:15.279Z,90
2022-11-07T00:38:15.797Z,90
2022-11-07T00:39:15.082Z,90
2022-11-07T00:40:15.515Z,90
2022-11-07T00:41:14.922Z,90
2022-11-07T00:42:15.494Z,90
2022-11-07T00:43:15.475Z,90
2022-11-07T00:44:15.630Z,90
2022-11-07T00:45:15.264Z,90
2022-11-07T00:46:15.588Z,90
2022-11-07T00:47:14.904Z,90
2022-11-07T00:48:15.285Z,90
2022-11-07T00:49:15.685Z,90
2022-11-07T00:50:15.086Z,90
2022-11-07T00:51:15.476Z,90
2022-11-07T00:52:14.844Z,90
2022-11-07T00:53:16.100Z,90
2022-11-07T00:54:15.649Z,90
2022-11-07T00:55:14.946Z,90
2022-11-07T00:56:15.264Z,90
2022-11-07T00:57:15.499Z,90
2022-11-07T00:58:19.818Z,90
2022-11-07T00:59:15.230Z,90
2022-11-07T01:00:15.596Z,90
2022-11-07T01:01:15.265Z,90
2022-11-07T01:02:15.990Z,90
2022-11-07T01:03:15.360Z,90
2022-11-07T01:04:15.168Z,90
2022-11-07T01:07:15.180Z,90
2022-11-07T01:08:15.510Z,90
2022-11-07T01:09:14.812Z,90
2022-11-07T01:14:15.970Z,90
2022-11-07T01:15:15.126Z,90
2022-11-07T01:16:15.478Z,90
2022-11-07T01:17:15.702Z,90
2022-11-07T01:18:15.088Z,90
2022-11-07T01:19:15.382Z,90
2022-11-07T01:20:14.869Z,90
2022-11-07T01:21:22.315Z,90
2022-11-07T01:22:15.558Z,90
2022-11-07T01:23:15.517Z,90
2022-11-07T01:24:15.341Z,90
2022-11-07T01:25:15.667Z,90
2022-11-07T01:26:15.022Z,90
2022-11-07T01:27:15.363Z,90
2022-11-07T01:28:15.692Z,90
2022-11-07T01:29:15.018Z,90
2022-11-07T01:30:15.375Z,90
2022-11-07T01:31:15.743Z,90
2022-11-07T01:32:15.173Z,90
2022-11-07T01:33:16.671Z,90
2022-11-07T01:34:14.959Z,90
2022-11-07T01:35:15.253Z,90
2022-11-07T01:36:15.726Z,90
2022-11-07T01:37:15.027Z,90
2022-11-07T01:38:15.450Z,90
2022-11-07T01:41:15.358Z,90
2022-11-07T01:42:15.673Z,90
2022-11-07T01:43:15.692Z,90
2022-11-07T01:44:15.434Z,90
2022-11-07T01:45:14.818Z,90
2022-11-07T01:46:15.268Z,90
2022-11-07T01:47:15.503Z,90
2022-11-07T01:48:14.908Z,90
2022-11-07T01:49:15.137Z,90
2022-11-07T01:54:15.073Z,90
2022-11-07T01:55:15.391Z,90
2022-11-07T01:56:14.861Z,90
2022-11-07T01:57:15.191Z,90
2022-11-07T01:58:15.586Z,90
2022-11-07T01:59:14.941Z,90
2022-11-07T02:00:15.289Z,90
2022-11-07T02:01:15.562Z,90
2022-11-07T02:04:14.930Z,90
2022-11-07T02:05:15.312Z,90
2022-11-07T02:06:15.854Z,90
2022-11-07T02:07:15.086Z,90
2022-11-07T02:08:15.508Z,90
2022-11-07T02:09:15.697Z,90
2022-11-07T02:10:15.063Z,90
2022-11-07T02:11:15.392Z,90
2022-11-07T02:12:15.611Z,90
2022-11-07T02:13:15.554Z,90
2022-11-07T02:14:15.396Z,90
2022-11-07T02:15:15.867Z,90
2022-11-07T02:16:15.207Z,90
2022-11-07T02:17:15.666Z,90
2022-11-07T02:18:14.937Z,90
2022-11-07T02:19:15.098Z,90
2022-11-07T02:20:15.431Z,90
2022-11-07T02:21:14.960Z,90
2022-11-07T02:22:15.178Z,90
2022-11-07T02:23:16.530Z,90
2022-11-07T02:24:14.937Z,90
2022-11-07T02:25:15.629Z,90
2022-11-07T02:26:15.035Z,90
2022-11-07T02:27:15.402Z,90
2022-11-07T02:28:15.020Z,90
2022-11-07T02:29:15.186Z,90
2022-11-07T02:30:15.510Z,90
2022-11-07T02:33:16.324Z,90
2022-11-07T02:34:14.870Z,90
2022-11-07T02:35:15.319Z,90
2022-11-07T02:36:15.637Z,90
2022-11-07T02:37:15.065Z,90
2022-11-07T02:38:15.519Z,90
2022-11-07T02:39:15.611Z,90
2022-11-07T02:40:15.853Z,90
2022-11-07T02:41:15.030Z,90
2022-11-07T02:42:15.477Z,90
2022-11-07T02:43:15.616Z,90
2022-11-07T02:44:15.471Z,90
2022-11-07T02:45:15.745Z,89
2022-11-07T02:46:15.204Z,89
2022-11-07T02:47:15.609Z,89
2022-11-07T02:48:14.989Z,89
2022-11-07T02:49:15.306Z,89
2022-11-07T02:50:15.688Z,89
2022-11-07T02:51:15.101Z,89
2022-11-07T02:52:15.452Z,89
2022-11-07T02:53:16.967Z,89
2022-11-07T02:54:15.063Z,89
2022-11-07T02:55:15.416Z,89
2022-11-07T02:56:15.761Z,89
2022-11-07T02:57:15.099Z,89
2022-11-07T02:58:15.645Z,89
2022-11-07T02:59:14.926Z,89
2022-11-07T03:02:15.792Z,89
2022-11-07T03:03:16.237Z,89
2022-11-07T03:04:14.867Z,89
2022-11-07T03:05:15.287Z,89
2022-11-07T03:06:15.665Z,89
2022-11-07T03:07:15.012Z,89
2022-11-07T03:08:15.469Z,89
2022-11-07T03:09:15.836Z,89
2022-11-07T03:10:15.185Z,89
2022-11-07T03:11:15.524Z,89
2022-11-07T03:12:15.539Z,89
2022-11-07T03:13:16.672Z,89
2022-11-07T03:14:14.977Z,89
2022-11-07T03:15:16.026Z,89
2022-11-07T03:16:15.191Z,89
2022-11-07T03:17:15.516Z,89
2022-11-07T03:18:14.900Z,89
2022-11-07T03:21:15.214Z,89
2022-11-07T03:22:15.610Z,89
2022-11-07T03:23:15.727Z,89
2022-11-07T03:26:15.846Z,89
2022-11-07T03:27:15.140Z,89
2022-11-07T03:28:14.961Z,89
2022-11-07T03:29:15.328Z,89
2022-11-07T03:30:15.765Z,89
2022-11-07T03:31:15.133Z,89
2022-11-07T03:32:15.560Z,89
2022-11-07T03:33:15.502Z,89
2022-11-07T03:34:15.109Z,89
2022-11-07T03:35:15.481Z,89
2022-11-07T03:38:15.759Z,89
2022-11-07T03:39:15.081Z,89
2022-11-07T03:40:15.438Z,89
2022-11-07T03:41:15.802Z,89
2022-11-07T03:42:15.621Z,89
2022-11-07T03:43:14.861Z,89
2022-11-07T03:44:15.033Z,89
2022-11-07T03:45:15.361Z,89
2022-11-07T03:46:15.689Z,89
2022-11-07T03:47:15.014Z,89
2022-11-07T03:50:15.131Z,89
2022-11-07T03:51:15.490Z,89
2022-11-07T03:52:15.811Z,89
2022-11-07T03:53:17.283Z,89
2022-11-07T03:54:15.515Z,89
2022-11-07T03:55:15.186Z,89
2022-11-07T03:56:15.541Z,89
2022-11-07T03:57:14.826Z,89
2022-11-07T03:58:15.353Z,89
2022-11-07T03:59:15.499Z,89
2022-11-07T04:02:16.612Z,89
2022-11-07T04:03:15.679Z,89
2022-11-07T04:04:15.371Z,89
2022-11-07T04:05:15.554Z,89
2022-11-07T04:06:14.948Z,89
2022-11-07T04:07:15.134Z,89
2022-11-07T04:08:15.630Z,89
2022-11-07T04:09:14.914Z,89
2022-11-07T04:10:15.343Z,89
2022-11-07T04:11:15.682Z,89
2022-11-07T04:12:15.044Z,89
2022-11-07T04:15:15.225Z,89
2022-11-07T04:16:21.970Z,89
2022-11-07T04:17:14.938Z,89
2022-11-07T04:18:15.304Z,89
2022-11-07T04:19:15.630Z,89
2022-11-07T04:20:15.021Z,89
2022-11-07T04:21:15.306Z,89
2022-11-07T04:22:15.833Z,89
2022-11-07T04:25:14.895Z,89
2022-11-07T04:26:15.295Z,89
2022-11-07T04:27:15.673Z,89
2022-11-07T04:28:15.504Z,89
2022-11-07T04:29:14.831Z,89
2022-11-07T04:30:15.299Z,89
2022-11-07T04:33:16.415Z,89
2022-11-07T04:34:15.844Z,89
2022-11-07T04:35:15.092Z,89
2022-11-07T04:36:15.514Z,89
2022-11-07T04:37:14.915Z,89
2022-11-07T04:38:15.277Z,89
2022-11-07T04:39:15.603Z,89
2022-11-07T04:40:14.888Z,89
2022-11-07T04:41:15.266Z,90
2022-11-07T04:42:15.605Z,90
2022-11-07T04:43:15.584Z,90
2022-11-07T04:44:15.411Z,90
2022-11-07T04:45:15.724Z,90
2022-11-07T04:46:15.126Z,90
2022-11-07T04:49:15.120Z,90
2022-11-07T04:50:15.509Z,90
2022-11-07T04:51:15.844Z,90
2022-11-07T04:52:15.176Z,90
2022-11-07T04:53:16.826Z,90
2022-11-07T04:54:16.104Z,90
2022-11-07T04:55:15.487Z,90
2022-11-07T04:56:14.850Z,90
2022-11-07T04:57:15.283Z,89
2022-11-07T04:58:15.083Z,89
2022-11-07T05:01:15.003Z,89
2022-11-07T05:02:16.044Z,89
2022-11-07T05:03:17.160Z,89
2022-11-07T05:04:15.058Z,89
2022-11-07T05:05:15.639Z,89
2022-11-07T05:06:14.928Z,89
2022-11-07T05:07:15.230Z,89
2022-11-07T05:08:15.587Z,89
2022-11-07T05:09:14.958Z,89
2022-11-07T05:10:18.594Z,89
2022-11-07T05:11:15.573Z,89
2022-11-07T05:12:14.944Z,89
2022-11-07T05:13:16.127Z,89
2022-11-07T05:14:15.705Z,89
2022-11-07T05:15:15.087Z,89
2022-11-07T05:16:15.531Z,89
2022-11-07T05:17:15.810Z,89
2022-11-07T05:18:15.197Z,89
2022-11-07T05:19:15.517Z,89
2022-11-07T05:20:14.874Z,89
2022-11-07T05:21:15.181Z,89
2022-11-07T05:22:15.664Z,89
2022-11-07T05:25:14.871Z,89
2022-11-07T05:28:14.931Z,89
2022-11-07T05:29:15.245Z,89
2022-11-07T05:30:15.618Z,89
2022-11-07T05:31:14.904Z,89
2022-11-07T05:32:15.201Z,89
2022-11-07T05:33:16.403Z,90
2022-11-07T05:34:20.691Z,90
2022-11-07T05:35:15.456Z,89
2022-11-07T05:36:15.738Z,90
2022-11-07T05:37:15.156Z,90
2022-11-07T05:38:15.555Z,90
2022-11-07T05:39:15.843Z,90
2022-11-07T05:40:15.300Z,90
2022-11-07T05:41:15.391Z,90
2022-11-07T05:42:15.754Z,90
2022-11-07T05:43:15.825Z,90
2022-11-07T05:44:15.421Z,90
2022-11-07T05:47:15.676Z,90
2022-11-07T05:48:15.090Z,90
2022-11-07T05:49:15.342Z,90
2022-11-07T05:50:15.732Z,90
2022-11-07T05:51:15.110Z,90
2022-11-07T05:52:15.368Z,90
2022-11-07T05:53:17.002Z,90
2022-11-07T05:54:15.092Z,90
2022-11-07T05:55:15.498Z,90
2022-11-07T05:56:15.883Z,90
2022-11-07T05:59:14.968Z,90
2022-11-07T06:00:15.773Z,90
2022-11-07T06:01:15.091Z,90
2022-11-07T06:02:16.306Z,90
2022-11-07T06:03:16.902Z,90
2022-11-07T06:04:15.032Z,90
2022-11-07T06:05:15.778Z,90
2022-11-07T06:06:15.733Z,90
2022-11-07T06:07:15.053Z,90
2022-11-07T06:08:15.412Z,90
2022-11-07T06:11:15.708Z,90
2022-11-07T06:12:16.126Z,90
2022-11-07T06:13:16.653Z,90
2022-11-07T06:14:14.942Z,90
2022-11-07T06:15:15.382Z,90
2022-11-07T06:16:15.814Z,90
2022-11-07T06:17:15.160Z,90
2022-11-07T06:18:15.548Z,90
2022-11-07T06:19:14.940Z,90
2022-11-07T06:20:15.210Z,90
2022-11-07T06:21:15.596Z,90
2022-11-07T06:22:14.955Z,90
2022-11-07T06:23:16.120Z,90
2022-11-07T06:24:21.345Z,90
2022-11-07T06:25:14.930Z,90
2022-11-07T06:26:15.320Z,90
2022-11-07T06:27:15.754Z,90
2022-11-07T06:28:15.092Z,90
2022-11-07T06:29:15.431Z,90
2022-11-07T06:30:15.813Z,90
2022-11-07T06:31:15.215Z,90
2022-11-07T06:32:15.549Z,90
2022-11-07T06:33:15.552Z,90
2022-11-07T06:34:15.109Z,90
2022-11-07T06:35:15.442Z,90
2022-11-07T06:36:15.882Z,90
2022-11-07T06:37:15.212Z,90
2022-11-07T06:38:15.692Z,90
2022-11-07T06:39:15.142Z,90
2022-11-07T06:40:15.677Z,90
2022-11-07T06:41:14.912Z,90
2022-11-07T06:42:15.268Z,90
2022-11-07T06:43:16.362Z,90
2022-11-07T06:44:14.942Z,90
2022-11-07T06:45:15.193Z,90
2022-11-07T06:46:15.602Z,90
2022-11-07T06:47:14.918Z,90
2022-11-07T06:48:15.324Z,90
2022-11-07T06:49:15.746Z,90
2022-11-07T06:50:15.126Z,90
2022-11-07T06:51:15.449Z,90
2022-11-07T06:52:15.817Z,90
2022-11-07T06:53:16.147Z,90
2022-11-07T06:54:15.527Z,90
2022-11-07T06:55:15.821Z,90
2022-11-07T06:56:15.415Z,90
2022-11-07T06:57:15.526Z,90
2022-11-07T06:58:14.897Z,90
2022-11-07T06:59:15.267Z,90
2022-11-07T07:00:15.727Z,90
2022-11-07T07:01:15.475Z,90
2022-11-07T07:02:52.045Z,90
2022-11-07T07:03:16.565Z,90
2022-11-07T07:06:15.429Z,90
2022-11-07T07:07:15.793Z,90
2022-11-07T07:08:15.211Z,90
2022-11-07T07:09:15.616Z,90
2022-11-07T07:10:15.032Z,90
2022-11-07T07:11:15.342Z,90
2022-11-07T07:12:15.838Z,90
2022-11-07T07:13:15.773Z,90
2022-11-07T07:14:18.053Z,90
2022-11-07T07:15:15.643Z,90
2022-11-07T07:16:15.738Z,90
2022-11-07T07:17:15.055Z,90
2022-11-07T07:18:15.483Z,90
2022-11-07T07:21:15.448Z,90
2022-11-07T07:22:15.118Z,90
2022-11-07T07:23:15.531Z,90
2022-11-07T07:24:15.850Z,90
2022-11-07T07:25:15.199Z,90
2022-11-07T07:26:15.443Z,90
2022-11-07T07:27:15.730Z,90
2022-11-07T07:28:15.243Z,90
2022-11-07T07:29:15.474Z,90
2022-11-07T07:30:15.811Z,90
2022-11-07T07:31:15.575Z,90
2022-11-07T07:32:15.763Z,90
2022-11-07T07:33:15.639Z,90
2022-11-07T07:34:15.313Z,90
2022-11-07T07:35:15.247Z,90
2022-11-07T07:36:22.348Z,90
2022-11-07T07:37:15.836Z,90
2022-11-07T07:38:15.213Z,90
2022-11-07T07:39:15.553Z,90
2022-11-07T07:40:14.903Z,90
2022-11-07T07:41:15.278Z,90
2022-11-07T07:42:15.728Z,90
2022-11-07T07:45:15.840Z,90
2022-11-07T07:46:15.116Z,90
2022-11-07T07:47:18.066Z,90
2022-11-07T07:48:15.975Z,90
2022-11-07T07:49:15.275Z,90
2022-11-07T07:52:15.275Z,90
2022-11-07T07:53:16.036Z,90
2022-11-07T07:54:15.015Z,90
2022-11-07T07:55:15.854Z,90
2022-11-07T07:56:15.128Z,90
2022-11-07T07:57:15.463Z,90
2022-11-07T07:58:15.770Z,90
2022-11-07T07:59:15.596Z,90
2022-11-07T08:00:15.284Z,90
2022-11-07T08:01:15.778Z,90
2022-11-07T08:02:16.122Z,90
2022-11-07T08:03:15.934Z,90
2022-11-07T08:04:15.150Z,90
2022-11-07T08:05:15.430Z,90
2022-11-07T08:06:15.750Z,90
2022-11-07T08:07:15.145Z,90
2022-11-07T08:08:15.497Z,90
2022-11-07T08:09:15.778Z,90
2022-11-07T08:10:47.451Z,90
2022-11-07T08:12:14.829Z,90
2022-11-07T08:13:15.722Z,90
2022-11-07T08:14:15.520Z,89
2022-11-07T08:15:14.973Z,89
2022-11-07T08:16:15.754Z,90
2022-11-07T08:17:14.989Z,90
2022-11-07T08:18:15.327Z,90
2022-11-07T08:19:15.814Z,90
2022-11-07T08:20:15.016Z,90
2022-11-07T08:21:15.258Z,90
2022-11-07T08:22:15.689Z,90
2022-11-07T08:23:23.235Z,90
2022-11-07T08:24:15.601Z,90
2022-11-07T08:25:15.006Z,90
2022-11-07T08:26:15.337Z,90
2022-11-07T08:27:15.574Z,90
2022-11-07T08:28:15.372Z,90
2022-11-07T08:29:15.611Z,90
2022-11-07T08:30:22.071Z,90
2022-11-07T08:31:15.265Z,90
2022-11-07T08:32:15.711Z,89
2022-11-07T08:33:15.723Z,89
2022-11-07T08:34:15.675Z,89
2022-11-07T08:35:15.817Z,89
2022-11-07T08:36:15.119Z,89
2022-11-07T08:37:15.460Z,89
2022-11-07T08:38:15.828Z,89
2022-11-07T08:39:15.098Z,89
2022-11-07T08:40:15.413Z,88
2022-11-07T08:41:18.400Z,88
2022-11-07T08:42:15.562Z,88
2022-11-07T08:43:15.404Z,88
2022-11-07T08:46:15.146Z,88
2022-11-07T08:47:15.512Z,88
2022-11-07T08:48:15.948Z,88
2022-11-07T08:49:15.265Z,88
2022-11-07T08:50:15.680Z,88
2022-11-07T08:51:15.077Z,88
2022-11-07T08:52:15.409Z,88
2022-11-07T08:53:15.877Z,88
2022-11-07T08:56:15.237Z,88
2022-11-07T08:57:15.614Z,88
2022-11-07T08:58:15.005Z,88
2022-11-07T08:59:15.301Z,87
2022-11-07T09:00:15.008Z,87
2022-11-07T09:01:15.712Z,87
2022-11-07T09:03:58.964Z,87
2022-11-07T09:04:00.847Z,87
2022-11-07T09:05:15.359Z,87
2022-11-07T09:06:15.806Z,87
2022-11-07T09:07:15.290Z,87
2022-11-07T09:08:15.574Z,87
2022-11-07T09:09:22.571Z,87
2022-11-07T09:10:15.364Z,87
2022-11-07T09:11:15.822Z,86
2022-11-07T09:12:14.951Z,86
2022-11-07T09:13:15.760Z,86
2022-11-07T09:14:15.512Z,86
2022-11-07T09:15:15.008Z,86
2022-11-07T09:16:15.335Z,86
2022-11-07T09:17:15.633Z,86
2022-11-07T09:18:15.082Z,85
2022-11-07T09:19:15.425Z,85
2022-11-07T09:20:15.724Z,85
2022-11-07T09:21:20.888Z,85
2022-11-07T09:22:15.409Z,85
2022-11-07T09:23:16.628Z,85
2022-11-07T09:24:15.061Z,85
2022-11-07T09:25:15.440Z,85
2022-11-07T09:26:15.825Z,85
2022-11-07T09:27:15.246Z,85
2022-11-07T09:28:15.655Z,84
2022-11-07T09:29:14.960Z,84
2022-11-07T09:30:15.270Z,84
2022-11-07T09:31:15.507Z,84
2022-11-07T09:32:49.457Z,84
2022-11-07T09:34:15.578Z,84
2022-11-07T09:35:15.872Z,84
2022-11-07T09:36:15.169Z,84
2022-11-07T09:37:15.548Z,83
2022-11-07T09:38:14.990Z,83
2022-11-07T09:39:15.558Z,82
2022-11-07T09:40:15.733Z,82
2022-11-07T09:41:16.834Z,82
2022-11-07T09:42:15.499Z,82
2022-11-07T09:43:16.591Z,82
2022-11-07T09:44:15.161Z,81
2022-11-07T09:45:15.584Z,81
2022-11-07T09:46:15.016Z,81
2022-11-07T09:47:15.352Z,81
2022-11-07T09:48:15.751Z,81
2022-11-07T09:49:15.099Z,80
2022-11-07T09:50:15.494Z,80
2022-11-07T09:51:15.852Z,79
2022-11-07T09:52:15.116Z,79
2022-11-07T09:53:15.988Z,79
2022-11-07T09:56:15.643Z,78
2022-11-07T09:57:20.398Z,78
2022-11-07T09:58:15.292Z,78
2022-11-07T09:59:20.442Z,77
2022-11-07T10:00:15.104Z,77
2022-11-07T10:01:15.785Z,77
2022-11-07T10:02:16.472Z,77
2022-11-07T10:03:16.284Z,77
2022-11-07T10:04:32.733Z,77
2022-11-07T10:05:15.470Z,77
2022-11-07T10:06:16.708Z,76
2022-11-07T10:07:15.138Z,76
2022-11-07T10:08:15.381Z,76
2022-11-07T10:09:15.842Z,76
2022-11-07T10:10:15.160Z,76
2022-11-07T10:11:15.499Z,76
2022-11-07T10:12:15.931Z,76
2022-11-07T10:13:15.660Z,76
2022-11-07T10:14:15.567Z,76
2022-11-07T10:15:15.817Z,76
2022-11-07T10:16:15.209Z,76
2022-11-07T10:17:15.638Z,75
2022-11-07T10:18:15.018Z,75
2022-11-07T10:19:15.459Z,75
2022-11-07T10:20:17.452Z,75
2022-11-07T10:21:43.741Z,75
2022-11-07T10:23:16.171Z,75
2022-11-07T10:24:15.934Z,75
2022-11-07T10:25:15.179Z,75
2022-11-07T10:26:15.436Z,75
2022-11-07T10:27:15.886Z,74
2022-11-07T10:28:15.371Z,74
2022-11-07T10:29:15.592Z,74
2022-11-07T10:30:15.137Z,74
2022-11-07T10:31:15.427Z,74
2022-11-07T10:32:15.727Z,73
2022-11-07T10:33:15.657Z,73
2022-11-07T10:34:15.506Z,73
2022-11-07T10:35:15.841Z,73
2022-11-07T10:36:15.125Z,73
2022-11-07T10:37:15.436Z,73
2022-11-07T10:38:15.871Z,73
2022-11-07T10:39:15.283Z,72
2022-11-07T10:40:18.288Z,72
2022-11-07T10:43:16.465Z,71
2022-11-07T10:44:15.572Z,71
2022-11-07T10:45:15.348Z,71
2022-11-07T10:46:15.752Z,71
2022-11-07T10:47:15.114Z,71
2022-11-07T10:48:16.038Z,71
2022-11-07T10:49:15.857Z,70
2022-11-07T10:50:15.308Z,70
2022-11-07T10:51:15.647Z,70
2022-11-07T10:52:15.140Z,70
2022-11-07T10:53:15.409Z,70
2022-11-07T10:54:21.662Z,70
2022-11-07T10:55:15.282Z,70
2022-11-07T10:56:15.569Z,69
2022-11-07T10:57:15.791Z,69
2022-11-07T10:58:15.959Z,69
2022-11-07T10:59:15.656Z,69
2022-11-07T11:00:15.242Z,69
2022-11-07T11:01:15.802Z,68
2022-11-07T11:02:15.250Z,68
2022-11-07T11:05:14.968Z,68
2022-11-07T11:06:15.379Z,67
2022-11-07T11:07:15.639Z,67
2022-11-07T11:08:15.691Z,66
2022-11-07T11:09:15.420Z,66
2022-11-07T11:10:15.769Z,66
2022-11-07T11:11:15.133Z,66
2022-11-07T11:12:15.420Z,65
2022-11-07T11:13:15.825Z,64
2022-11-07T11:14:15.468Z,64
2022-11-07T11:15:15.624Z,63
2022-11-07T11:16:15.032Z,63
2022-11-07T11:17:15.558Z,63
2022-11-07T11:18:16.507Z,62
2022-11-07T11:19:15.040Z,62
2022-11-07T11:20:15.400Z,62
2022-11-07T11:21:15.743Z,62
2022-11-07T11:22:16.005Z,62
2022-11-07T11:23:16.409Z,62
2022-11-07T11:24:15.938Z,62
2022-11-07T11:25:15.311Z,62
2022-11-07T11:26:15.594Z,62
2022-11-07T11:27:15.308Z,62
2022-11-07T11:28:16.321Z,62
2022-11-07T11:29:15.847Z,61
2022-11-07T11:30:15.309Z,61
2022-11-07T11:31:15.861Z,61
2022-11-07T11:32:15.414Z,61
2022-11-07T11:33:16.382Z,61
2022-11-07T11:34:15.021Z,61
2022-11-07T11:35:15.391Z,61
2022-11-07T11:36:15.757Z,61
2022-11-07T11:37:15.059Z,61
2022-11-07T11:38:15.354Z,61
2022-11-07T11:39:15.673Z,61
2022-11-07T11:40:15.103Z,61
2022-11-07T11:41:17.355Z,61
2022-11-07T11:42:15.817Z,61
2022-11-07T11:43:15.646Z,61
2022-11-07T11:44:15.567Z,61
2022-11-07T11:45:15.969Z,61
2022-11-07T11:46:15.268Z,61
2022-11-07T11:47:15.656Z,61
2022-11-07T11:48:15.159Z,61
2022-11-07T11:49:15.298Z,61
2022-11-07T11:50:15.644Z,61
2022-11-07T11:51:15.021Z,61
2022-11-07T11:52:15.420Z,61
2022-11-07T11:53:16.550Z,61
2022-11-07T11:54:15.186Z,61
2022-11-07T11:55:15.886Z,61
2022-11-07T11:56:15.247Z,61
2022-11-07T11:57:15.765Z,61
2022-11-07T11:58:15.307Z,61
2022-11-07T11:59:15.503Z,61
2022-11-07T12:00:15.898Z,61
2022-11-07T12:01:15.355Z,61
2022-11-07T12:02:15.740Z,61
2022-11-07T12:05:15.667Z,60
2022-11-07T12:06:15.024Z,60
2022-11-07T12:07:15.355Z,60
2022-11-07T12:08:15.728Z,60
2022-11-07T12:09:22.426Z,60
2022-11-07T12:10:15.458Z,60
2022-11-07T12:11:15.293Z,61
2022-11-07T12:12:15.678Z,61
2022-11-07T12:13:15.700Z,61
2022-11-07T12:14:15.521Z,61
2022-11-07T12:15:15.964Z,61
2022-11-07T12:16:15.284Z,61
2022-11-07T12:17:15.732Z,61
2022-11-07T12:18:15.015Z,61
2022-11-07T12:19:15.230Z,61
2022-11-07T12:20:15.675Z,60
2022-11-07T12:21:15.938Z,60
2022-11-07T12:22:15.276Z,61
2022-11-07T12:23:16.262Z,61
2022-11-07T12:24:16.069Z,61
2022-11-07T12:25:15.315Z,61
2022-11-07T12:26:15.711Z,61
2022-11-07T12:27:15.100Z,62
2022-11-07T12:28:15.412Z,62
2022-11-07T12:29:15.769Z,62
2022-11-07T12:30:15.663Z,62
2022-11-07T12:31:15.068Z,62
2022-11-07T12:34:15.111Z,62
2022-11-07T12:37:15.262Z,62
2022-11-07T12:38:15.765Z,62
2022-11-07T12:41:15.324Z,62
2022-11-07T12:42:15.725Z,63
2022-11-07T12:43:15.400Z,63
2022-11-07T12:44:15.406Z,63
2022-11-07T12:45:15.802Z,63
2022-11-07T12:46:15.204Z,63
2022-11-07T12:47:15.592Z,63
2022-11-07T12:48:19.519Z,64
2022-11-07T12:49:15.090Z,64
2022-11-07T12:50:15.563Z,64
2022-11-07T12:51:15.775Z,64
2022-11-07T12:52:15.169Z,64
2022-11-07T12:55:15.429Z,65
2022-11-07T12:56:15.747Z,65
2022-11-07T12:57:15.119Z,65
2022-11-07T12:58:15.654Z,65
2022-11-07T12:59:15.936Z,65
2022-11-07T13:00:15.292Z,65
2022-11-07T13:03:15.937Z,65
2022-11-07T13:04:15.679Z,65
2022-11-07T13:05:15.017Z,65
2022-11-07T13:06:15.465Z,65
2022-11-07T13:07:15.262Z,65
2022-11-07T13:08:15.735Z,65
2022-11-07T13:09:15.931Z,65
2022-11-07T13:10:15.210Z,65
2022-11-07T13:11:15.609Z,65
2022-11-07T13:12:15.889Z,65
2022-11-07T13:15:15.118Z,65
2022-11-07T13:16:22.065Z,65
2022-11-07T13:19:15.698Z,65
2022-11-07T13:22:15.870Z,65
2022-11-07T13:23:15.635Z,65
2022-11-07T13:24:15.450Z,65
2022-11-07T13:25:22.479Z,64
2022-11-07T13:26:54.587Z,64
2022-11-07T13:28:15.855Z,64
2022-11-07T13:29:15.235Z,64
2022-11-07T13:32:15.275Z,64
2022-11-07T13:33:16.102Z,64
2022-11-07T13:34:15.893Z,64
2022-11-07T13:35:15.263Z,64
2022-11-07T13:36:15.672Z,64
2022-11-07T13:37:15.033Z,65
2022-11-07T13:38:15.488Z,65
2022-11-07T13:39:15.747Z,65
2022-11-07T13:40:15.185Z,65
2022-11-07T13:41:15.702Z,65
2022-11-07T13:42:15.123Z,65
2022-11-07T13:43:15.730Z,65
2022-11-07T13:44:15.711Z,65
2022-11-07T13:45:15.149Z,65
2022-11-07T13:46:15.497Z,65
2022-11-07T13:47:15.786Z,65
2022-11-07T13:48:15.347Z,65
2022-11-07T13:49:15.648Z,65
2022-11-07T13:50:15.002Z,65
2022-11-07T13:51:15.496Z,65
2022-11-07T13:52:15.791Z,65
2022-11-07T13:53:15.282Z,65
2022-11-07T13:54:15.382Z,65
2022-11-07T13:55:15.698Z,65
2022-11-07T13:56:15.179Z,66
2022-11-07T13:57:15.440Z,66
2022-11-07T13:58:15.974Z,66
2022-11-07T13:59:15.268Z,66
2022-11-07T14:02:16.112Z,66
2022-11-07T14:03:16.408Z,66
2022-11-07T14:04:15.232Z,66
2022-11-07T14:05:23.231Z,66
2022-11-07T14:06:15.938Z,66
2022-11-07T14:07:15.365Z,67
2022-11-07T14:08:15.822Z,67
2022-11-07T14:09:15.112Z,67
2022-11-07T14:10:15.438Z,66
2022-11-07T14:11:15.859Z,66
2022-11-07T14:14:15.950Z,66
2022-11-07T14:15:15.268Z,66
2022-11-07T14:16:15.646Z,66
2022-11-07T14:17:15.890Z,66
2022-11-07T14:18:15.861Z,66
2022-11-07T14:19:15.251Z,66
2022-11-07T14:20:15.621Z,66
2022-11-07T14:21:15.960Z,66
2022-11-07T14:22:20.968Z,67
2022-11-07T14:23:16.108Z,67
2022-11-07T14:26:15.074Z,67
2022-11-07T14:27:15.362Z,67
2022-11-07T14:28:16.381Z,67
2022-11-07T14:31:15.987Z,67
2022-11-07T14:32:15.296Z,67
2022-11-07T14:33:15.878Z,67
2022-11-07T14:34:15.167Z,67
2022-11-07T14:35:15.523Z,67
2022-11-07T14:36:15.834Z,67
2022-11-07T14:37:15.095Z,67
2022-11-07T14:38:15.972Z,67
2022-11-07T14:39:21.614Z,67
2022-11-07T14:40:15.292Z,67
2022-11-07T14:43:15.387Z,67
2022-11-07T14:44:15.770Z,67
2022-11-07T14:45:15.241Z,67
2022-11-07T14:46:20.325Z,68
2022-11-07T14:47:15.871Z,68
2022-11-07T14:48:15.899Z,68
2022-11-07T14:49:15.361Z,68
2022-11-07T14:50:15.798Z,68
2022-11-07T14:51:15.439Z,68
2022-11-07T14:52:21.663Z,68
2022-11-07T14:53:15.136Z,69
2022-11-07T14:54:15.574Z,69
2022-11-07T14:55:15.956Z,69
2022-11-07T14:56:15.267Z,69
2022-11-07T14:57:15.586Z,69
2022-11-07T14:58:16.652Z,68
2022-11-07T14:59:15.650Z,68
2022-11-07T15:00:15.098Z,68
2022-11-07T15:01:15.708Z,68
2022-11-07T15:02:16.430Z,68
2022-11-07T15:03:15.208Z,68
2022-11-07T15:04:15.539Z,68
2022-11-07T15:05:17.654Z,68
2022-11-07T15:06:15.367Z,68
2022-11-07T15:07:15.678Z,68
2022-11-07T15:08:15.361Z,68
2022-11-07T15:09:15.331Z,68
2022-11-07T15:10:17.341Z,68
2022-11-07T15:11:15.053Z,68
2022-11-07T15:12:15.404Z,68
2022-11-07T15:15:15.545Z,68
2022-11-07T15:16:16.030Z,68
2022-11-07T15:17:15.353Z,68
2022-11-07T15:18:16.588Z,68
2022-11-07T15:19:15.317Z,68
2022-11-07T15:20:15.293Z,68
2022-11-07T15:21:15.757Z,68
2022-11-07T15:24:21.998Z,67
2022-11-07T15:25:15.320Z,67
2022-11-07T15:26:15.626Z,67
2022-11-07T15:27:15.017Z,68
2022-11-07T15:28:15.825Z,68
2022-11-07T15:29:15.724Z,68
2022-11-07T15:30:15.038Z,68
2022-11-07T15:31:19.849Z,68
2022-11-07T15:32:15.739Z,68
2022-11-07T15:33:15.119Z,68
2022-11-07T15:36:15.374Z,69
2022-11-07T15:37:15.705Z,69
2022-11-07T15:38:15.700Z,69
2022-11-07T15:39:15.517Z,69
2022-11-07T15:40:15.826Z,69
2022-11-07T15:41:15.131Z,69
2022-11-07T15:42:15.480Z,69
2022-11-07T15:43:15.837Z,69
2022-11-07T15:44:15.192Z,69
2022-11-07T15:45:15.643Z,69
2022-11-07T15:46:15.004Z,69
2022-11-07T15:47:15.383Z,69
2022-11-07T15:48:16.444Z,69
2022-11-07T15:49:15.132Z,69
2022-11-07T15:52:15.165Z,70
2022-11-07T15:53:15.435Z,70
2022-11-07T15:54:15.855Z,71
2022-11-07T15:55:15.292Z,71
2022-11-07T15:56:15.657Z,71
2022-11-07T15:57:15.122Z,71
2022-11-07T15:58:16.121Z,71
2022-11-07T15:59:15.811Z,71
2022-11-07T16:00:15.169Z,71
2022-11-07T16:01:15.851Z,71
2022-11-07T16:02:16.375Z,72
2022-11-07T16:03:15.074Z,72
2022-11-07T16:04:15.414Z,72
2022-11-07T16:05:15.855Z,72
2022-11-07T16:06:15.900Z,72
2022-11-07T16:07:15.285Z,72
2022-11-07T16:08:16.352Z,72